sensor_id;sensor_type;location;lat;lon;timestamp;pressure;altitude;pressure_sealevel;temperature;humidity
70902;BME280;58548;47.210;8.618;2022-07-23T00:00:22;94400.31;;;29.03;41.28
70902;BME280;58548;47.210;8.618;2022-07-23T00:02:48;94448.72;;;29.31;40.55
70902;BME280;58548;47.210;8.618;2022-07-23T00:05:14;94355.66;;;28.47;40.62
70902;BME280;58548;47.210;8.618;2022-07-23T00:07:42;94400.38;;;28.70;40.42
70902;BME280;58548;47.210;8.618;2022-07-23T00:10:09;94417.94;;;28.49;41.01
70902;BME280;58548;47.210;8.618;2022-07-23T00:12:38;94309.03;;;28.09;40.96
70902;BME280;58548;47.210;8.618;2022-07-23T00:15:10;94325.69;;;28.39;41.02
70902;BME280;58548;47.210;8.618;2022-07-23T00:17:38;94383.94;;;28.72;41.29
70902;BME280;58548;47.210;8.618;2022-07-23T00:20:07;94364.28;;;28.77;41.59
70902;BME280;58548;47.210;8.618;2022-07-23T00:22:33;94323.50;;;28.41;41.09
70902;BME280;58548;47.210;8.618;2022-07-23T00:24:59;94347.81;;;28.64;40.29
70902;BME280;58548;47.210;8.618;2022-07-23T00:27:25;94276.47;;;28.30;39.78
70902;BME280;58548;47.210;8.618;2022-07-23T00:29:51;94262.72;;;28.18;40.12
70902;BME280;58548;47.210;8.618;2022-07-23T00:32:24;94344.94;;;28.61;39.97
70902;BME280;58548;47.210;8.618;2022-07-23T00:34:52;94272.97;;;28.16;40.93
70902;BME280;58548;47.210;8.618;2022-07-23T00:37:20;94268.69;;;28.14;41.10
70902;BME280;58548;47.210;8.618;2022-07-23T00:39:46;94300.75;;;28.39;40.28
70902;BME280;58548;47.210;8.618;2022-07-23T00:42:16;94294.38;;;28.63;40.80
70902;BME280;58548;47.210;8.618;2022-07-23T00:44:42;94292.50;;;28.35;40.33
70902;BME280;58548;47.210;8.618;2022-07-23T00:47:11;94284.63;;;28.53;41.29
70902;BME280;58548;47.210;8.618;2022-07-23T00:49:37;94275.66;;;28.16;41.76
70902;BME280;58548;47.210;8.618;2022-07-23T00:52:03;94270.16;;;28.07;42.09
70902;BME280;58548;47.210;8.618;2022-07-23T00:54:29;94259.06;;;28.41;41.89
70902;BME280;58548;47.210;8.618;2022-07-23T00:56:58;94244.16;;;28.35;41.40
70902;BME280;58548;47.210;8.618;2022-07-23T00:59:26;94147.94;;;27.81;41.31
70902;BME280;58548;47.210;8.618;2022-07-23T01:01:54;94170.22;;;27.96;41.60
70902;BME280;58548;47.210;8.618;2022-07-23T01:04:20;94231.50;;;28.36;42.68
70902;BME280;58548;47.210;8.618;2022-07-23T01:06:46;94194.91;;;28.12;42.75
70902;BME280;58548;47.210;8.618;2022-07-23T01:09:14;94229.72;;;28.31;42.31
70902;BME280;58548;47.210;8.618;2022-07-23T01:11:41;94181.06;;;27.91;43.13
70902;BME280;58548;47.210;8.618;2022-07-23T01:14:13;94223.44;;;28.22;43.43
70902;BME280;58548;47.210;8.618;2022-07-23T01:16:40;94200.22;;;27.98;43.36
70902;BME280;58548;47.210;8.618;2022-07-23T01:19:10;94254.97;;;28.16;43.21
70902;BME280;58548;47.210;8.618;2022-07-23T01:21:39;94226.88;;;27.94;43.55
70902;BME280;58548;47.210;8.618;2022-07-23T01:24:12;94193.06;;;27.79;43.92
70902;BME280;58548;47.210;8.618;2022-07-23T01:26:42;94219.38;;;28.10;43.36
70902;BME280;58548;47.210;8.618;2022-07-23T01:29:08;94194.38;;;27.96;44.64
70902;BME280;58548;47.210;8.618;2022-07-23T01:31:34;94206.06;;;28.33;44.03
70902;BME280;58548;47.210;8.618;2022-07-23T01:34:05;94217.06;;;28.32;44.15
70902;BME280;58548;47.210;8.618;2022-07-23T01:36:39;94194.13;;;28.25;44.20
70902;BME280;58548;47.210;8.618;2022-07-23T01:39:06;94221.66;;;28.31;44.68
70902;BME280;58548;47.210;8.618;2022-07-23T01:41:33;94217.19;;;28.26;44.78
70902;BME280;58548;47.210;8.618;2022-07-23T01:43:59;94154.00;;;27.73;44.46
70902;BME280;58548;47.210;8.618;2022-07-23T01:46:25;94149.72;;;27.72;44.50
70902;BME280;58548;47.210;8.618;2022-07-23T01:48:53;94206.81;;;27.92;44.63
70902;BME280;58548;47.210;8.618;2022-07-23T01:51:20;94153.28;;;27.53;44.78
70902;BME280;58548;47.210;8.618;2022-07-23T01:53:46;94183.75;;;27.91;45.26
70902;BME280;58548;47.210;8.618;2022-07-23T01:56:12;94204.41;;;28.04;45.06
70902;BME280;58548;47.210;8.618;2022-07-23T01:58:40;94228.47;;;28.09;44.66
70902;BME280;58548;47.210;8.618;2022-07-23T02:01:06;94222.69;;;27.88;44.28
70902;BME280;58548;47.210;8.618;2022-07-23T02:03:32;94177.06;;;27.74;44.71
70902;BME280;58548;47.210;8.618;2022-07-23T02:06:00;94221.84;;;28.21;43.72
70902;BME280;58548;47.210;8.618;2022-07-23T02:08:26;94219.94;;;28.07;43.82
70902;BME280;58548;47.210;8.618;2022-07-23T02:10:52;94267.88;;;28.14;43.98
70902;BME280;58548;47.210;8.618;2022-07-23T02:13:18;94264.06;;;28.01;44.73
70902;BME280;58548;47.210;8.618;2022-07-23T02:15:47;94266.22;;;27.99;44.81
70902;BME280;58548;47.210;8.618;2022-07-23T02:18:13;94261.88;;;28.03;44.38
70902;BME280;58548;47.210;8.618;2022-07-23T02:20:42;94227.44;;;27.77;44.93
70902;BME280;58548;47.210;8.618;2022-07-23T02:23:08;94247.53;;;27.80;45.34
70902;BME280;58548;47.210;8.618;2022-07-23T02:25:36;94263.44;;;27.90;45.06
70902;BME280;58548;47.210;8.618;2022-07-23T02:28:06;94278.56;;;28.00;44.89
70902;BME280;58548;47.210;8.618;2022-07-23T02:30:37;94200.09;;;27.61;44.99
70902;BME280;58548;47.210;8.618;2022-07-23T02:33:04;94163.06;;;27.44;44.86
70902;BME280;58548;47.210;8.618;2022-07-23T02:35:32;94236.28;;;27.78;45.60
70902;BME280;58548;47.210;8.618;2022-07-23T02:37:59;94187.41;;;27.48;44.95
70902;BME280;58548;47.210;8.618;2022-07-23T02:40:25;94278.06;;;27.98;44.50
70902;BME280;58548;47.210;8.618;2022-07-23T02:42:51;94227.78;;;27.57;44.41
70902;BME280;58548;47.210;8.618;2022-07-23T02:45:17;94219.22;;;27.54;44.77
70902;BME280;58548;47.210;8.618;2022-07-23T02:47:43;94314.78;;;28.03;44.64
70902;BME280;58548;47.210;8.618;2022-07-23T02:50:11;94366.47;;;28.08;44.79
70902;BME280;58548;47.210;8.618;2022-07-23T02:52:38;94397.69;;;28.04;45.13
70902;BME280;58548;47.210;8.618;2022-07-23T02:55:10;94406.25;;;28.06;44.38
70902;BME280;58548;47.210;8.618;2022-07-23T02:57:37;94310.84;;;27.62;45.21
70902;BME280;58548;47.210;8.618;2022-07-23T03:00:05;94263.38;;;27.43;45.14
70902;BME280;58548;47.210;8.618;2022-07-23T03:02:34;94242.28;;;27.17;44.86
70902;BME280;58548;47.210;8.618;2022-07-23T03:05:02;94327.00;;;27.37;45.15
70902;BME280;58548;47.210;8.618;2022-07-23T03:07:31;94395.69;;;27.96;44.46
70902;BME280;58548;47.210;8.618;2022-07-23T03:10:01;94437.38;;;28.07;44.40
70902;BME280;58548;47.210;8.618;2022-07-23T03:12:34;94306.84;;;27.40;44.88
70902;BME280;58548;47.210;8.618;2022-07-23T03:15:00;94315.50;;;27.56;44.64
70902;BME280;58548;47.210;8.618;2022-07-23T03:17:28;94358.09;;;27.96;44.37
70902;BME280;58548;47.210;8.618;2022-07-23T03:19:54;94352.63;;;28.01;44.61
70902;BME280;58548;47.210;8.618;2022-07-23T03:22:20;94322.53;;;28.04;45.48
70902;BME280;58548;47.210;8.618;2022-07-23T03:24:48;94292.13;;;27.76;44.74
70902;BME280;58548;47.210;8.618;2022-07-23T03:27:28;94268.75;;;27.76;44.42
70902;BME280;58548;47.210;8.618;2022-07-23T03:30:02;94190.63;;;27.31;44.83
70902;BME280;58548;47.210;8.618;2022-07-23T03:32:28;94237.72;;;28.03;44.30
70902;BME280;58548;47.210;8.618;2022-07-23T03:34:54;94163.00;;;27.49;44.64
70902;BME280;58548;47.210;8.618;2022-07-23T03:37:23;94235.81;;;27.90;44.52
70902;BME280;58548;47.210;8.618;2022-07-23T03:39:49;94159.25;;;27.50;43.66
70902;BME280;58548;47.210;8.618;2022-07-23T03:42:15;94160.63;;;27.62;44.02
70902;BME280;58548;47.210;8.618;2022-07-23T03:44:41;94254.78;;;28.12;44.54
70902;BME280;58548;47.210;8.618;2022-07-23T03:47:09;94198.41;;;27.79;44.53
70902;BME280;58548;47.210;8.618;2022-07-23T03:49:35;94184.88;;;27.71;43.83
70902;BME280;58548;47.210;8.618;2022-07-23T03:52:03;94255.91;;;28.06;44.44
70902;BME280;58548;47.210;8.618;2022-07-23T03:54:29;94180.59;;;27.56;43.75
70902;BME280;58548;47.210;8.618;2022-07-23T03:56:55;94197.53;;;27.70;44.22
70902;BME280;58548;47.210;8.618;2022-07-23T03:59:26;94273.94;;;28.06;44.85
70902;BME280;58548;47.210;8.618;2022-07-23T04:01:54;94240.75;;;27.82;45.22
70902;BME280;58548;47.210;8.618;2022-07-23T04:04:22;94268.47;;;28.11;44.32
70902;BME280;58548;47.210;8.618;2022-07-23T04:06:50;94216.56;;;27.68;45.22
70902;BME280;58548;47.210;8.618;2022-07-23T04:09:19;94270.88;;;28.12;43.86
70902;BME280;58548;47.210;8.618;2022-07-23T04:11:49;94231.94;;;27.82;44.30
70902;BME280;58548;47.210;8.618;2022-07-23T04:14:17;94272.03;;;28.06;44.75
70902;BME280;58548;47.210;8.618;2022-07-23T04:16:43;94266.06;;;28.09;44.88
70902;BME280;58548;47.210;8.618;2022-07-23T04:19:09;94267.16;;;28.08;44.02
70902;BME280;58548;47.210;8.618;2022-07-23T04:21:35;94198.88;;;27.53;44.51
70902;BME280;58548;47.210;8.618;2022-07-23T04:24:03;94274.78;;;28.01;45.01
70902;BME280;58548;47.210;8.618;2022-07-23T04:26:31;94277.72;;;28.19;44.63
70902;BME280;58548;47.210;8.618;2022-07-23T04:28:57;94237.66;;;27.75;44.67
70902;BME280;58548;47.210;8.618;2022-07-23T04:31:31;94308.00;;;28.05;45.06
70902;BME280;58548;47.210;8.618;2022-07-23T04:33:57;94236.38;;;27.73;44.48
70902;BME280;58548;47.210;8.618;2022-07-23T04:36:28;94320.28;;;28.11;44.68
70902;BME280;58548;47.210;8.618;2022-07-23T04:38:54;94304.44;;;28.10;44.65
70902;BME280;58548;47.210;8.618;2022-07-23T04:41:20;94289.03;;;28.02;45.01
70902;BME280;58548;47.210;8.618;2022-07-23T04:43:46;94301.63;;;28.01;45.19
70902;BME280;58548;47.210;8.618;2022-07-23T04:46:12;94353.06;;;28.08;45.81
70902;BME280;58548;47.210;8.618;2022-07-23T04:48:41;94373.16;;;28.11;45.68
70902;BME280;58548;47.210;8.618;2022-07-23T04:51:08;94369.13;;;28.13;45.55
70902;BME280;58548;47.210;8.618;2022-07-23T04:53:37;94370.75;;;28.09;46.17
70902;BME280;58548;47.210;8.618;2022-07-23T04:56:08;94379.03;;;28.13;45.78
70902;BME280;58548;47.210;8.618;2022-07-23T04:58:34;94302.22;;;27.65;46.56
70902;BME280;58548;47.210;8.618;2022-07-23T05:01:00;94355.31;;;28.01;46.62
70902;BME280;58548;47.210;8.618;2022-07-23T05:03:31;94328.66;;;27.91;45.76
70902;BME280;58548;47.210;8.618;2022-07-23T05:05:58;94401.00;;;28.34;45.54
70902;BME280;58548;47.210;8.618;2022-07-23T05:08:26;94399.81;;;28.40;45.16
70902;BME280;58548;47.210;8.618;2022-07-23T05:10:52;94423.31;;;28.49;45.47
70902;BME280;58548;47.210;8.618;2022-07-23T05:13:21;94411.16;;;28.51;46.03
70902;BME280;58548;47.210;8.618;2022-07-23T05:15:49;94330.13;;;27.97;45.46
70902;BME280;58548;47.210;8.618;2022-07-23T05:18:20;94419.72;;;28.53;45.45
70902;BME280;58548;47.210;8.618;2022-07-23T05:20:50;94423.31;;;28.49;44.92
70902;BME280;58548;47.210;8.618;2022-07-23T05:23:16;94378.38;;;28.02;45.52
70902;BME280;58548;47.210;8.618;2022-07-23T05:25:44;94437.25;;;28.51;45.25
70902;BME280;58548;47.210;8.618;2022-07-23T05:28:10;94445.00;;;28.52;46.08
70902;BME280;58548;47.210;8.618;2022-07-23T05:30:36;94453.28;;;28.56;45.15
70902;BME280;58548;47.210;8.618;2022-07-23T05:33:04;94388.31;;;28.21;45.08
70902;BME280;58548;47.210;8.618;2022-07-23T05:35:33;94388.81;;;28.23;45.14
70902;BME280;58548;47.210;8.618;2022-07-23T05:38:01;94377.09;;;28.33;45.50
70902;BME280;58548;47.210;8.618;2022-07-23T05:40:29;94427.56;;;28.83;45.54
70902;BME280;58548;47.210;8.618;2022-07-23T05:42:58;94376.47;;;28.55;45.34
70902;BME280;58548;47.210;8.618;2022-07-23T05:45:24;94375.53;;;28.79;44.83
70902;BME280;58548;47.210;8.618;2022-07-23T05:47:50;94433.56;;;29.08;44.27
70902;BME280;58548;47.210;8.618;2022-07-23T05:50:16;94352.69;;;28.62;44.39
70902;BME280;58548;47.210;8.618;2022-07-23T05:52:44;94428.50;;;29.20;43.67
70902;BME280;58548;47.210;8.618;2022-07-23T05:55:11;94399.84;;;29.01;43.85
70902;BME280;58548;47.210;8.618;2022-07-23T05:57:38;94409.06;;;28.95;44.13
70902;BME280;58548;47.210;8.618;2022-07-23T06:00:05;94420.34;;;28.97;43.00
70902;BME280;58548;47.210;8.618;2022-07-23T06:02:32;94437.13;;;28.89;42.30
70902;BME280;58548;47.210;8.618;2022-07-23T06:04:57;94443.69;;;28.83;43.17
70902;BME280;58548;47.210;8.618;2022-07-23T06:07:25;94426.81;;;28.63;43.46
70902;BME280;58548;47.210;8.618;2022-07-23T06:09:51;94464.81;;;28.76;43.64
70902;BME280;58548;47.210;8.618;2022-07-23T06:12:18;94390.41;;;28.24;44.39
70902;BME280;58548;47.210;8.618;2022-07-23T06:14:44;94397.88;;;28.27;44.15
70902;BME280;58548;47.210;8.618;2022-07-23T06:17:10;94460.75;;;28.59;44.22
70902;BME280;58548;47.210;8.618;2022-07-23T06:19:38;94462.56;;;28.64;44.15
70902;BME280;58548;47.210;8.618;2022-07-23T06:22:04;94463.44;;;28.59;44.44
70902;BME280;58548;47.210;8.618;2022-07-23T06:24:29;94474.78;;;28.56;44.35
70902;BME280;58548;47.210;8.618;2022-07-23T06:26:55;94397.41;;;28.06;44.11
70902;BME280;58548;47.210;8.618;2022-07-23T06:29:21;94411.03;;;28.09;44.39
70902;BME280;58548;47.210;8.618;2022-07-23T06:31:49;94482.34;;;28.54;44.36
70902;BME280;58548;47.210;8.618;2022-07-23T06:34:17;94472.16;;;28.51;43.82
70902;BME280;58548;47.210;8.618;2022-07-23T06:36:43;94492.91;;;28.64;44.26
70902;BME280;58548;47.210;8.618;2022-07-23T06:39:09;94418.44;;;28.18;44.69
70902;BME280;58548;47.210;8.618;2022-07-23T06:41:35;94485.53;;;28.56;44.44
70902;BME280;58548;47.210;8.618;2022-07-23T06:44:03;94478.03;;;28.53;44.55
70902;BME280;58548;47.210;8.618;2022-07-23T06:46:32;94494.91;;;28.72;44.15
70902;BME280;58548;47.210;8.618;2022-07-23T06:49:00;94496.66;;;28.63;43.96
70902;BME280;58548;47.210;8.618;2022-07-23T06:51:26;94505.16;;;28.70;44.42
70902;BME280;58548;47.210;8.618;2022-07-23T06:53:52;94506.56;;;28.68;44.17
70902;BME280;58548;47.210;8.618;2022-07-23T06:56:18;94498.78;;;28.66;44.21
70902;BME280;58548;47.210;8.618;2022-07-23T06:58:44;94439.31;;;28.21;44.12
70902;BME280;58548;47.210;8.618;2022-07-23T07:01:12;94522.31;;;28.74;44.27
70902;BME280;58548;47.210;8.618;2022-07-23T07:03:38;94531.41;;;28.79;44.42
70902;BME280;58548;47.210;8.618;2022-07-23T07:06:09;94528.50;;;28.75;44.42
70902;BME280;58548;47.210;8.618;2022-07-23T07:08:37;94498.94;;;28.56;44.44
70902;BME280;58548;47.210;8.618;2022-07-23T07:11:07;94466.03;;;28.31;44.55
70902;BME280;58548;47.210;8.618;2022-07-23T07:13:36;94503.81;;;28.54;44.45
70902;BME280;58548;47.210;8.618;2022-07-23T07:16:03;94461.25;;;28.28;45.00
70902;BME280;58548;47.210;8.618;2022-07-23T07:18:29;94517.50;;;28.71;45.37
70902;BME280;58548;47.210;8.618;2022-07-23T07:20:54;94453.19;;;28.28;44.18
70902;BME280;58548;47.210;8.618;2022-07-23T07:23:25;94532.69;;;28.81;44.25
70902;BME280;58548;47.210;8.618;2022-07-23T07:25:53;94527.81;;;28.83;44.27
70902;BME280;58548;47.210;8.618;2022-07-23T07:28:21;94539.09;;;28.85;43.54
70902;BME280;58548;47.210;8.618;2022-07-23T07:30:49;94537.28;;;28.95;43.46
70902;BME280;58548;47.210;8.618;2022-07-23T07:33:18;94480.94;;;28.56;43.63
70902;BME280;58548;47.210;8.618;2022-07-23T07:35:44;94526.03;;;28.93;43.33
70902;BME280;58548;47.210;8.618;2022-07-23T07:38:12;94475.28;;;28.58;43.28
70902;BME280;58548;47.210;8.618;2022-07-23T07:40:40;94533.31;;;28.92;43.18
70902;BME280;58548;47.210;8.618;2022-07-23T07:43:06;94530.31;;;28.94;42.69
70902;BME280;58548;47.210;8.618;2022-07-23T07:45:32;94532.81;;;28.90;43.31
70902;BME280;58548;47.210;8.618;2022-07-23T07:47:58;94508.91;;;28.74;43.63
70902;BME280;58548;47.210;8.618;2022-07-23T07:50:24;94451.91;;;28.39;42.70
70902;BME280;58548;47.210;8.618;2022-07-23T07:52:52;94542.50;;;29.05;42.96
70902;BME280;58548;47.210;8.618;2022-07-23T07:55:20;94492.75;;;28.74;42.24
70902;BME280;58548;47.210;8.618;2022-07-23T07:57:48;94534.38;;;29.10;41.83
70902;BME280;58548;47.210;8.618;2022-07-23T08:00:17;94469.28;;;28.61;41.82
70902;BME280;58548;47.210;8.618;2022-07-23T08:02:45;94544.38;;;29.04;41.39
70902;BME280;58548;47.210;8.618;2022-07-23T08:05:12;94545.88;;;28.97;41.76
70902;BME280;58548;47.210;8.618;2022-07-23T08:07:39;94525.91;;;28.84;41.56
70902;BME280;58548;47.210;8.618;2022-07-23T08:10:07;94490.00;;;28.61;42.20
70902;BME280;58548;47.210;8.618;2022-07-23T08:12:42;94479.22;;;28.47;43.19
70902;BME280;58548;47.210;8.618;2022-07-23T08:15:11;94483.53;;;28.62;42.67
70902;BME280;58548;47.210;8.618;2022-07-23T08:17:41;94345.94;;;27.65;42.96
70902;BME280;58548;47.210;8.618;2022-07-23T08:20:11;94485.41;;;28.47;42.53
70902;BME280;58548;47.210;8.618;2022-07-23T08:25:15;94532.78;;;28.76;42.40
70902;BME280;58548;47.210;8.618;2022-07-23T08:27:42;94410.19;;;27.95;42.92
70902;BME280;58548;47.210;8.618;2022-07-23T08:30:09;94447.25;;;28.12;42.51
70902;BME280;58548;47.210;8.618;2022-07-23T08:35:27;94517.63;;;28.47;43.22
70902;BME280;58548;47.210;8.618;2022-07-23T08:37:54;94519.22;;;28.29;43.08
70902;BME280;58548;47.210;8.618;2022-07-23T08:40:27;94485.66;;;28.12;43.24
70902;BME280;58548;47.210;8.618;2022-07-23T08:42:54;94515.38;;;28.35;43.63
70902;BME280;58548;47.210;8.618;2022-07-23T08:45:43;94401.75;;;27.82;42.84
70902;BME280;58548;47.210;8.618;2022-07-23T08:48:21;94518.59;;;28.70;42.70
70902;BME280;58548;47.210;8.618;2022-07-23T08:50:55;94520.69;;;28.73;42.38
70902;BME280;58548;47.210;8.618;2022-07-23T08:53:26;94501.38;;;28.71;42.09
70902;BME280;58548;47.210;8.618;2022-07-23T08:55:55;94498.84;;;28.80;41.69
70902;BME280;58548;47.210;8.618;2022-07-23T08:58:28;94460.06;;;28.67;42.57
70902;BME280;58548;47.210;8.618;2022-07-23T09:00:56;94511.47;;;29.27;44.13
70902;BME280;58548;47.210;8.618;2022-07-23T09:03:28;94514.59;;;29.48;43.84
70902;BME280;58548;47.210;8.618;2022-07-23T09:05:58;94460.88;;;29.29;43.42
70902;BME280;58548;47.210;8.618;2022-07-23T09:08:27;94513.56;;;29.86;43.15
70902;BME280;58548;47.210;8.618;2022-07-23T09:11:02;94448.50;;;29.70;43.19
70902;BME280;58548;47.210;8.618;2022-07-23T09:16:10;94521.50;;;30.56;42.14
70902;BME280;58548;47.210;8.618;2022-07-23T09:24:08;94483.22;;;31.22;40.40
70902;BME280;58548;47.210;8.618;2022-07-23T09:26:48;94499.81;;;31.47;40.03
70902;BME280;58548;47.210;8.618;2022-07-23T09:31:57;94522.41;;;31.68;39.85
70902;BME280;58548;47.210;8.618;2022-07-23T09:34:28;94514.38;;;31.77;39.15
70902;BME280;58548;47.210;8.618;2022-07-23T09:36:58;94512.19;;;31.97;39.62
70902;BME280;58548;47.210;8.618;2022-07-23T09:39:33;94448.47;;;31.87;38.44
70902;BME280;58548;47.210;8.618;2022-07-23T09:42:20;94432.91;;;32.19;38.24
70902;BME280;58548;47.210;8.618;2022-07-23T09:44:51;94507.22;;;33.13;35.69
70902;BME280;58548;47.210;8.618;2022-07-23T09:47:18;94447.63;;;33.31;35.50
70902;BME280;58548;47.210;8.618;2022-07-23T09:50:02;94452.66;;;34.01;35.90
70902;BME280;58548;47.210;8.618;2022-07-23T09:52:42;94432.13;;;34.55;33.71
70902;BME280;58548;47.210;8.618;2022-07-23T09:55:08;94459.84;;;35.19;33.99
70902;BME280;58548;47.210;8.618;2022-07-23T09:57:34;94444.75;;;35.55;33.37
70902;BME280;58548;47.210;8.618;2022-07-23T10:00:05;94502.50;;;36.18;31.65
70902;BME280;58548;47.210;8.618;2022-07-23T10:02:32;94453.50;;;35.89;31.19
70902;BME280;58548;47.210;8.618;2022-07-23T10:05:03;94485.50;;;36.21;31.70
70902;BME280;58548;47.210;8.618;2022-07-23T10:07:36;94485.91;;;36.48;33.50
70902;BME280;58548;47.210;8.618;2022-07-23T10:10:06;94507.31;;;37.06;32.23
70902;BME280;58548;47.210;8.618;2022-07-23T10:12:33;94525.38;;;37.43;28.43
70902;BME280;58548;47.210;8.618;2022-07-23T10:15:11;94514.34;;;37.71;28.11
70902;BME280;58548;47.210;8.618;2022-07-23T10:17:39;94458.91;;;37.64;27.64
70902;BME280;58548;47.210;8.618;2022-07-23T10:20:05;94516.50;;;38.14;27.54
70902;BME280;58548;47.210;8.618;2022-07-23T10:22:36;94473.72;;;37.98;28.03
70902;BME280;58548;47.210;8.618;2022-07-23T10:25:32;94509.34;;;38.25;27.25
70902;BME280;58548;47.210;8.618;2022-07-23T10:31:07;94512.47;;;38.63;26.73
70902;BME280;58548;47.210;8.618;2022-07-23T10:36:58;94512.31;;;38.95;24.31
70902;BME280;58548;47.210;8.618;2022-07-23T10:39:32;94492.16;;;38.60;25.01
70902;BME280;58548;47.210;8.618;2022-07-23T10:42:16;94522.69;;;38.66;25.51
70902;BME280;58548;47.210;8.618;2022-07-23T10:44:47;94524.88;;;38.60;24.90
70902;BME280;58548;47.210;8.618;2022-07-23T10:47:28;94461.66;;;37.99;25.07
70902;BME280;58548;47.210;8.618;2022-07-23T10:50:42;94513.25;;;38.08;26.98
70902;BME280;58548;47.210;8.618;2022-07-23T10:53:12;94508.00;;;37.99;26.20
70902;BME280;58548;47.210;8.618;2022-07-23T10:55:47;94519.22;;;38.14;26.88
70902;BME280;58548;47.210;8.618;2022-07-23T10:58:45;94505.78;;;38.41;25.81
70902;BME280;58548;47.210;8.618;2022-07-23T11:04:00;94488.00;;;38.47;24.93
70902;BME280;58548;47.210;8.618;2022-07-23T11:17:31;94503.41;;;38.79;25.00
70902;BME280;58548;47.210;8.618;2022-07-23T11:25:33;94496.44;;;39.47;24.06
70902;BME280;58548;47.210;8.618;2022-07-23T11:28:17;94497.84;;;39.61;23.66
70902;BME280;58548;47.210;8.618;2022-07-23T11:30:47;94468.19;;;39.63;23.27
70902;BME280;58548;47.210;8.618;2022-07-23T11:33:21;94434.56;;;39.59;22.86
70902;BME280;58548;47.210;8.618;2022-07-23T11:36:02;94420.41;;;39.53;23.13
70902;BME280;58548;47.210;8.618;2022-07-23T11:38:33;94444.09;;;39.69;24.24
70902;BME280;58548;47.210;8.618;2022-07-23T11:41:01;94437.38;;;39.89;22.91
70902;BME280;58548;47.210;8.618;2022-07-23T11:43:31;94488.06;;;40.40;22.01
70902;BME280;58548;47.210;8.618;2022-07-23T11:45:59;94496.25;;;40.40;22.40
70902;BME280;58548;47.210;8.618;2022-07-23T11:48:29;94496.09;;;40.60;22.26
70902;BME280;58548;47.210;8.618;2022-07-23T11:50:57;94441.88;;;40.35;22.19
70902;BME280;58548;47.210;8.618;2022-07-23T11:53:29;94494.34;;;40.75;21.49
70902;BME280;58548;47.210;8.618;2022-07-23T11:56:10;94484.66;;;40.85;21.42
70902;BME280;58548;47.210;8.618;2022-07-23T11:58:38;94473.31;;;40.83;21.46
70902;BME280;58548;47.210;8.618;2022-07-23T12:01:06;94503.56;;;40.97;22.63
70902;BME280;58548;47.210;8.618;2022-07-23T12:03:32;94504.38;;;41.02;21.68
70902;BME280;58548;47.210;8.618;2022-07-23T12:06:00;94454.13;;;40.83;20.68
70902;BME280;58548;47.210;8.618;2022-07-23T12:08:26;94503.63;;;41.05;21.22
70902;BME280;58548;47.210;8.618;2022-07-23T12:10:52;94494.19;;;40.98;21.24
70902;BME280;58548;47.210;8.618;2022-07-23T12:13:20;94501.66;;;41.02;22.09
70902;BME280;58548;47.210;8.618;2022-07-23T12:15:49;94495.78;;;41.03;21.09
70902;BME280;58548;47.210;8.618;2022-07-23T12:18:22;94476.09;;;40.90;21.90
70902;BME280;58548;47.210;8.618;2022-07-23T12:20:53;94495.94;;;40.80;21.27
70902;BME280;58548;47.210;8.618;2022-07-23T12:23:22;94428.69;;;40.45;21.17
70902;BME280;58548;47.210;8.618;2022-07-23T12:25:50;94459.66;;;40.52;21.77
70902;BME280;58548;47.210;8.618;2022-07-23T12:33:34;94487.06;;;40.56;21.70
70902;BME280;58548;47.210;8.618;2022-07-23T12:36:04;94483.47;;;40.52;21.02
70902;BME280;58548;47.210;8.618;2022-07-23T12:41:08;94499.75;;;40.37;21.54
70902;BME280;58548;47.210;8.618;2022-07-23T12:43:39;94491.09;;;40.35;20.86
70902;BME280;58548;47.210;8.618;2022-07-23T12:46:11;94448.53;;;40.07;21.01
70902;BME280;58548;47.210;8.618;2022-07-23T12:51:23;94489.94;;;40.06;21.12
70902;BME280;58548;47.210;8.618;2022-07-23T12:53:55;94480.41;;;39.96;21.09
70902;BME280;58548;47.210;8.618;2022-07-23T12:56:37;94476.00;;;39.88;21.51
70902;BME280;58548;47.210;8.618;2022-07-23T12:59:07;94484.53;;;39.83;22.02
70902;BME280;58548;47.210;8.618;2022-07-23T13:01:43;94489.88;;;40.02;21.76
70902;BME280;58548;47.210;8.618;2022-07-23T13:04:18;94422.16;;;39.65;21.50
70902;BME280;58548;47.210;8.618;2022-07-23T13:06:50;94415.03;;;39.57;21.34
70902;BME280;58548;47.210;8.618;2022-07-23T13:09:27;94476.84;;;39.92;21.35
70902;BME280;58548;47.210;8.618;2022-07-23T13:11:56;94416.25;;;39.63;21.58
70902;BME280;58548;47.210;8.618;2022-07-23T13:14:26;94422.16;;;39.65;21.20
70902;BME280;58548;47.210;8.618;2022-07-23T13:16:53;94463.16;;;39.92;21.90
70902;BME280;58548;47.210;8.618;2022-07-23T13:19:20;94470.94;;;39.90;21.73
70902;BME280;58548;47.210;8.618;2022-07-23T13:21:48;94465.59;;;39.97;20.89
70902;BME280;58548;47.210;8.618;2022-07-23T13:24:17;94411.28;;;39.69;20.69
70902;BME280;58548;47.210;8.618;2022-07-23T13:26:43;94471.91;;;40.01;20.48
70902;BME280;58548;47.210;8.618;2022-07-23T13:29:12;94472.72;;;40.05;20.18
70902;BME280;58548;47.210;8.618;2022-07-23T13:31:40;94400.22;;;39.58;20.01
70902;BME280;58548;47.210;8.618;2022-07-23T13:34:06;94480.53;;;40.03;21.75
70902;BME280;58548;47.210;8.618;2022-07-23T13:36:32;94397.06;;;39.56;21.52
70902;BME280;58548;47.210;8.618;2022-07-23T13:39:00;94410.81;;;39.63;21.90
70902;BME280;58548;47.210;8.618;2022-07-23T13:41:26;94382.13;;;39.49;20.74
70902;BME280;58548;47.210;8.618;2022-07-23T13:43:52;94457.44;;;40.01;21.09
70902;BME280;58548;47.210;8.618;2022-07-23T13:46:19;94468.47;;;40.08;21.51
70902;BME280;58548;47.210;8.618;2022-07-23T13:48:44;94462.69;;;40.13;21.31
70902;BME280;58548;47.210;8.618;2022-07-23T13:51:13;94442.88;;;39.93;20.43
70902;BME280;58548;47.210;8.618;2022-07-23T13:53:39;94454.66;;;39.97;21.19
70902;BME280;58548;47.210;8.618;2022-07-23T13:56:07;94402.94;;;39.58;21.01
70902;BME280;58548;47.210;8.618;2022-07-23T13:58:33;94429.88;;;39.83;20.26
70902;BME280;58548;47.210;8.618;2022-07-23T14:01:03;94449.19;;;39.97;21.29